Time;durP1;ratioP1;P1;durP2;ratioP2;P2;SDS_P1;SDS_P2;PMS_P1;PMS_P2;Temp;Humidity;BMP_temperature;BMP_pressure;BME280_temperature;BME280_humidity;BME280_pressure;Samples;Min_cycle;Max_cycle;Signal;HPM_P1;HPM_P2
2021/06/09 00:01:48;;;;;;;9.57;7.88;;;20.50;81.60;;;;;;5015870;28;20049;-71
2021/06/09 00:04:13;;;;;;;8.90;7.05;;;20.50;81.80;;;;;;5015617;28;20029;-70
2021/06/09 00:06:39;;;;;;;9.10;7.35;;;20.50;81.70;;;;;;5006000;28;20022;-70
2021/06/09 00:09:06;;;;;;;10.65;7.68;;;20.50;81.80;;;;;;4996074;28;20030;-70
2021/06/09 00:11:32;;;;;;;10.10;7.47;;;20.50;81.80;;;;;;4995474;28;20026;-68
2021/06/09 00:13:58;;;;;;;9.98;7.50;;;20.50;81.80;;;;;;4993665;28;20388;-70
2021/06/09 00:16:23;;;;;;;9.82;7.90;;;20.50;81.60;;;;;;4995800;28;20030;-68
2021/06/09 00:18:49;;;;;;;10.70;7.82;;;20.50;81.70;;;;;;4994789;28;20022;-70
2021/06/09 00:21:16;;;;;;;9.18;7.40;;;20.50;82.00;;;;;;4996014;28;20113;-70
2021/06/09 00:23:43;;;;;;;9.48;7.53;;;20.50;81.60;;;;;;4994818;28;20041;-70
2021/06/09 00:26:08;;;;;;;10.27;7.28;;;20.50;81.60;;;;;;4995732;28;20027;-70
2021/06/09 00:28:35;;;;;;;9.65;7.72;;;20.50;81.80;;;;;;4995826;28;20105;-70
2021/06/09 00:31:03;;;;;;;10.02;7.43;;;20.50;81.80;;;;;;4995753;28;20050;-70
2021/06/09 00:33:28;;;;;;;10.57;7.43;;;20.50;81.70;;;;;;4995524;28;20419;-70
2021/06/09 00:35:56;;;;;;;9.75;7.40;;;20.50;82.30;;;;;;4995789;28;20019;-70
2021/06/09 00:38:22;;;;;;;8.73;7.40;;;20.50;81.90;;;;;;4995631;28;20546;-70
2021/06/09 00:40:48;;;;;;;9.48;7.70;;;20.40;81.60;;;;;;4995678;28;20030;-69
2021/06/09 00:43:16;;;;;;;8.95;7.18;;;20.40;81.60;;;;;;4993892;28;20651;-69
2021/06/09 00:45:55;;;;;;;11.02;7.85;;;20.50;81.90;;;;;;4994225;28;20100;-69
2021/06/09 00:48:25;;;;;;;8.18;7.05;;;20.50;81.90;;;;;;4995529;28;20019;-71
2021/06/09 00:50:53;;;;;;;9.88;7.85;;;20.50;81.80;;;;;;4995536;28;20109;-69
2021/06/09 00:53:29;;;;;;;9.02;7.38;;;20.50;81.90;;;;;;4993830;28;20076;-70
2021/06/09 00:56:14;;;;;;;9.00;7.32;;;20.50;81.90;;;;;;4995320;28;20381;-70
2021/06/09 00:58:42;;;;;;;9.15;7.20;;;20.50;81.70;;;;;;4993538;28;20030;-69
2021/06/09 01:01:09;;;;;;;9.27;7.70;;;20.40;81.80;;;;;;4997963;28;20021;-69
2021/06/09 01:03:36;;;;;;;9.80;7.47;;;20.50;82.00;;;;;;5014791;28;20033;-69
2021/06/09 01:06:03;;;;;;;8.27;6.93;;;20.40;81.80;;;;;;5013171;28;20033;-69
2021/06/09 01:08:33;;;;;;;10.18;8.00;;;20.40;81.90;;;;;;5011651;28;20839;-68
2021/06/09 01:10:59;;;;;;;9.75;7.25;;;20.40;81.90;;;;;;5014682;28;20029;-69
2021/06/09 01:13:29;;;;;;;9.18;7.43;;;20.40;81.80;;;;;;5013007;28;20021;-70
2021/06/09 01:15:56;;;;;;;9.93;7.22;;;20.40;81.80;;;;;;5013339;28;20081;-71
2021/06/09 01:18:22;;;;;;;7.97;6.47;;;20.40;82.00;;;;;;5013189;28;20042;-69
2021/06/09 01:20:48;;;;;;;10.25;6.90;;;20.40;82.00;;;;;;5013163;28;20030;-68
2021/06/09 01:23:14;;;;;;;8.52;7.07;;;20.40;82.20;;;;;;5014114;28;20026;-70
2021/06/09 01:25:41;;;;;;;9.35;7.07;;;20.40;82.10;;;;;;5013283;28;20514;-69
2021/06/09 01:28:07;;;;;;;9.85;7.20;;;20.40;82.10;;;;;;5014180;28;20494;-70
2021/06/09 01:30:34;;;;;;;10.00;7.68;;;20.40;82.00;;;;;;5014309;28;20427;-69
2021/06/09 01:33:00;;;;;;;8.90;7.20;;;20.40;82.10;;;;;;5012705;28;20064;-70
2021/06/09 01:35:27;;;;;;;9.88;7.85;;;20.40;82.00;;;;;;5012838;28;20411;-70
2021/06/09 01:37:52;;;;;;;8.85;7.10;;;20.40;82.00;;;;;;5014130;28;20037;-68
2021/06/09 01:40:21;;;;;;;9.65;7.20;;;20.40;82.20;;;;;;5014138;28;20395;-70
2021/06/09 01:42:48;;;;;;;9.95;6.60;;;20.40;82.10;;;;;;5012613;28;20483;-69
2021/06/09 01:45:18;;;;;;;8.90;7.00;;;20.40;82.10;;;;;;5013896;28;20065;-69
2021/06/09 01:47:43;;;;;;;9.90;7.40;;;20.40;82.30;;;;;;5012686;28;20045;-70
2021/06/09 01:50:11;;;;;;;8.65;6.90;;;20.40;82.20;;;;;;5013825;28;20061;-70
2021/06/09 01:52:37;;;;;;;9.35;7.07;;;20.40;82.10;;;;;;5012358;28;20030;-70
2021/06/09 01:55:05;;;;;;;10.63;7.25;;;20.40;82.20;;;;;;5013892;28;20148;-70
2021/06/09 01:57:30;;;;;;;8.77;7.07;;;20.40;82.30;;;;;;5013630;28;20060;-70
2021/06/09 01:59:56;;;;;;;8.43;6.90;;;20.40;82.30;;;;;;5013791;28;20099;-71
2021/06/09 02:02:22;;;;;;;8.40;6.55;;;20.40;82.20;;;;;;5013692;28;20628;-69
2021/06/09 02:04:47;;;;;;;8.27;6.75;;;20.40;82.30;;;;;;5013389;28;20438;-70
2021/06/09 02:07:13;;;;;;;8.10;6.53;;;20.30;82.30;;;;;;5076949;23;20045;-67
2021/06/09 02:09:39;;;;;;;8.23;6.55;;;20.30;82.30;;;;;;5032811;28;20022;-65
2021/06/09 02:12:07;;;;;;;8.95;7.13;;;20.30;82.30;;;;;;5033010;28;20022;-65
2021/06/09 02:14:34;;;;;;;8.80;6.50;;;20.30;82.40;;;;;;5032943;28;20028;-66
2021/06/09 02:16:59;;;;;;;9.07;6.70;;;20.30;82.40;;;;;;5031910;28;20071;-65
2021/06/09 02:19:25;;;;;;;9.40;6.50;;;20.30;82.40;;;;;;5031492;28;20025;-67
2021/06/09 02:21:52;;;;;;;8.85;6.90;;;20.30;82.40;;;;;;5033099;28;20028;-65
2021/06/09 02:24:19;;;;;;;8.40;6.25;;;20.30;82.40;;;;;;5031413;28;20087;-64
2021/06/09 02:26:46;;;;;;;9.52;6.75;;;20.30;82.50;;;;;;5027390;28;20078;-65
2021/06/09 02:29:13;;;;;;;9.55;6.20;;;20.30;82.50;;;;;;5028001;28;20013;-64
2021/06/09 02:31:44;;;;;;;9.10;7.28;;;20.20;82.40;;;;;;5031655;28;20021;-66
2021/06/09 02:34:15;;;;;;;8.68;7.07;;;20.20;82.60;;;;;;5031601;28;20498;-66
2021/06/09 02:36:42;;;;;;;;;;;20.20;82.50;;;;;;5031816;28;20150;-65
2021/06/09 02:39:08;;;;;;;8.38;6.20;;;20.20;82.60;;;;;;5032791;28;19905;-65
2021/06/09 02:41:33;;;;;;;8.98;6.30;;;20.20;82.60;;;;;;5032646;28;20120;-65
2021/06/09 02:44:00;;;;;;;7.97;6.55;;;20.20;82.50;;;;;;5032441;28;20087;-65
2021/06/09 02:46:31;;;;;;;8.77;6.40;;;20.20;82.80;;;;;;5031151;28;20030;-65
2021/06/09 02:49:04;;;;;;;9.63;6.70;;;20.20;82.60;;;;;;5032698;28;20049;-67
2021/06/09 02:51:46;;;;;;;9.52;6.60;;;20.20;82.70;;;;;;5032518;28;20030;-65
2021/06/09 02:54:46;;;;;;;8.45;6.50;;;20.20;82.70;;;;;;5030929;28;20017;-65
2021/06/09 02:57:25;;;;;;;9.25;6.35;;;20.20;82.80;;;;;;5026762;28;20033;-68
2021/06/09 03:00:06;;;;;;;8.50;6.32;;;20.20;82.80;;;;;;5021570;28;20077;-67
2021/06/09 03:03:03;;;;;;;8.82;6.57;;;20.20;82.70;;;;;;5028704;28;20474;-65
2021/06/09 03:05:59;;;;;;;8.40;6.30;;;20.20;82.80;;;;;;5030868;28;20490;-64
2021/06/09 03:08:34;;;;;;;8.23;6.30;;;20.20;82.80;;;;;;5028944;28;20594;-65
2021/06/09 03:11:21;;;;;;;9.07;6.38;;;20.20;82.80;;;;;;5030857;28;20108;-69
2021/06/09 03:13:53;;;;;;;8.15;6.55;;;20.20;82.80;;;;;;5031908;28;20017;-65
2021/06/09 03:16:54;;;;;;;7.70;6.30;;;20.20;82.80;;;;;;5031852;28;20104;-65
2021/06/09 03:19:47;;;;;;;8.07;6.45;;;20.20;82.90;;;;;;5008567;28;20069;-65
2021/06/09 03:22:46;;;;;;;7.43;5.97;;;20.20;82.90;;;;;;5029533;28;20044;-65
2021/06/09 03:25:19;;;;;;;9.65;6.20;;;20.20;83.00;;;;;;5031811;28;20108;-64
2021/06/09 03:27:51;;;;;;;8.73;6.22;;;20.20;82.90;;;;;;5030538;28;20471;-66
2021/06/09 03:30:20;;;;;;;8.73;6.28;;;20.20;83.50;;;;;;5031105;28;20036;-68
2021/06/09 03:32:48;;;;;;;8.90;6.95;;;20.20;83.00;;;;;;5030137;28;20053;-66
2021/06/09 03:35:29;;;;;;;8.75;6.53;;;20.20;83.00;;;;;;5030452;28;20382;-65
2021/06/09 03:37:56;;;;;;;8.18;6.20;;;20.20;83.00;;;;;;5030353;28;20017;-65
2021/06/09 03:40:28;;;;;;;7.47;5.75;;;20.20;82.90;;;;;;5030342;28;20108;-65
2021/06/09 03:42:58;;;;;;;8.40;6.05;;;20.20;82.90;;;;;;5031037;28;20021;-66
2021/06/09 03:45:29;;;;;;;7.07;5.65;;;20.20;82.90;;;;;;5031425;28;20030;-65
2021/06/09 03:47:56;;;;;;;8.45;6.18;;;20.20;82.80;;;;;;5031881;28;20479;-64
2021/06/09 03:50:24;;;;;;;9.02;5.97;;;20.20;82.70;;;;;;5031551;28;20034;-67
2021/06/09 03:52:51;;;;;;;8.75;5.88;;;20.20;82.60;;;;;;5030075;28;20022;-64
2021/06/09 03:55:25;;;;;;;7.38;5.50;;;20.20;82.70;;;;;;5030277;28;20025;-65
2021/06/09 03:57:53;;;;;;;7.35;5.57;;;20.20;82.70;;;;;;5031325;28;20479;-67
2021/06/09 04:00:22;;;;;;;7.70;5.80;;;20.20;82.80;;;;;;5030818;28;20033;-64
2021/06/09 04:02:49;;;;;;;7.15;5.47;;;20.20;82.70;;;;;;5030704;28;20561;-65
2021/06/09 04:05:15;;;;;;;7.82;5.78;;;20.20;82.60;;;;;;5029722;28;20116;-64
2021/06/09 04:07:44;;;;;;;6.95;5.15;;;20.20;82.60;;;;;;5031026;28;20109;-64
2021/06/09 04:10:11;;;;;;;7.80;5.28;;;20.30;82.70;;;;;;5031289;28;20018;-65
2021/06/09 04:12:37;;;;;;;7.43;5.32;;;20.30;82.60;;;;;;5029698;28;20033;-69
2021/06/09 04:15:03;;;;;;;9.48;5.78;;;20.30;82.50;;;;;;5029607;28;20029;-64
2021/06/09 04:17:30;;;;;;;7.43;5.53;;;20.30;82.50;;;;;;5025546;28;20026;-65
2021/06/09 04:20:01;;;;;;;12.13;7.25;;;20.30;82.60;;;;;;5022362;28;20033;-65
2021/06/09 04:22:27;;;;;;;10.70;7.32;;;20.30;82.60;;;;;;5015542;28;20033;-64
2021/06/09 04:24:53;;;;;;;10.65;7.05;;;20.30;82.70;;;;;;5015579;28;20087;-65
2021/06/09 04:27:25;;;;;;;10.15;6.75;;;20.30;82.80;;;;;;5005209;28;20446;-67
2021/06/09 04:29:53;;;;;;;9.27;6.50;;;20.40;82.80;;;;;;5018849;28;20029;-67
2021/06/09 04:32:19;;;;;;;10.70;6.25;;;20.40;82.80;;;;;;5027373;28;20391;-66
2021/06/09 04:34:47;;;;;;;9.07;6.10;;;20.40;82.80;;;;;;5012372;28;20032;-65
2021/06/09 04:37:14;;;;;;;8.88;6.32;;;20.40;82.80;;;;;;5015243;28;20152;-68
2021/06/09 04:39:41;;;;;;;7.53;5.15;;;20.40;82.80;;;;;;5019747;28;20148;-65
2021/06/09 04:42:07;;;;;;;9.13;5.97;;;20.40;82.80;;;;;;5025374;28;20136;-67
2021/06/09 04:44:34;;;;;;;7.88;5.70;;;20.40;82.80;;;;;;5023775;28;20025;-65
2021/06/09 04:47:00;;;;;;;8.75;5.88;;;20.40;82.80;;;;;;5032941;28;20100;-67
2021/06/09 04:49:33;;;;;;;8.35;5.70;;;20.50;82.60;;;;;;5036786;28;20029;-66
2021/06/09 04:52:00;;;;;;;11.73;6.45;;;20.50;82.70;;;;;;5045703;28;20025;-69
2021/06/09 04:54:26;;;;;;;11.35;6.57;;;20.50;82.50;;;;;;5029849;28;20080;-75
2021/06/09 04:56:52;;;;;;;10.65;6.50;;;20.50;82.70;;;;;;5025725;28;20041;-68
2021/06/09 04:59:18;;;;;;;13.35;6.43;;;20.60;82.60;;;;;;5025581;28;20025;-72
2021/06/09 05:01:43;;;;;;;15.25;6.63;;;20.60;83.30;;;;;;5027734;28;20088;-68
2021/06/09 05:04:09;;;;;;;10.77;5.97;;;20.60;83.80;;;;;;5027355;28;20033;-65
2021/06/09 05:06:35;;;;;;;13.52;6.20;;;20.70;83.40;;;;;;5027263;28;20038;-67
2021/06/09 05:09:03;;;;;;;18.20;6.32;;;20.60;83.30;;;;;;5027709;28;20087;-65
2021/06/09 05:11:36;;;;;;;12.35;5.95;;;20.80;83.20;;;;;;5028268;28;20037;-66
2021/06/09 05:14:06;;;;;;;10.25;6.13;;;20.70;83.30;;;;;;5025279;28;20108;-66
2021/06/09 05:16:34;;;;;;;13.02;6.80;;;20.70;82.90;;;;;;5027339;28;20510;-67
2021/06/09 05:19:03;;;;;;;12.10;6.32;;;20.70;82.70;;;;;;5027439;28;20063;-66
2021/06/09 05:21:31;;;;;;;10.35;6.70;;;20.70;82.60;;;;;;5025729;28;20033;-67
2021/06/09 05:23:58;;;;;;;14.80;6.30;;;20.70;82.30;;;;;;5027559;28;20050;-65
2021/06/09 05:26:25;;;;;;;10.20;6.00;;;20.80;82.20;;;;;;5025367;28;20022;-66
2021/06/09 05:28:55;;;;;;;10.95;5.57;;;20.80;82.30;;;;;;5021520;28;20072;-68
2021/06/09 05:31:23;;;;;;;12.40;6.25;;;20.80;81.90;;;;;;5023757;28;20013;-70
2021/06/09 05:33:52;;;;;;;10.98;5.70;;;20.70;82.00;;;;;;5024593;28;20044;-65
2021/06/09 05:36:18;;;;;;;10.65;6.22;;;20.80;82.30;;;;;;5027327;28;20029;-66
2021/06/09 05:38:44;;;;;;;11.95;6.95;;;20.80;82.20;;;;;;5027263;28;20083;-65
2021/06/09 05:41:10;;;;;;;9.95;6.30;;;20.80;82.10;;;;;;5027275;28;20556;-65
2021/06/09 05:43:40;;;;;;;9.50;5.90;;;20.80;82.60;;;;;;5025121;28;20855;-66
2021/06/09 05:46:07;;;;;;;11.38;6.00;;;20.80;81.30;;;;;;5026303;28;20033;-66
2021/06/09 05:48:36;;;;;;;11.00;6.50;;;20.90;81.90;;;;;;5025529;28;20030;-65
2021/06/09 05:51:02;;;;;;;11.35;6.07;;;20.80;81.70;;;;;;5024146;28;20487;-69
2021/06/09 05:53:30;;;;;;;10.90;6.32;;;20.90;81.80;;;;;;5025763;28;20048;-67
2021/06/09 05:55:55;;;;;;;9.88;6.03;;;21.00;81.40;;;;;;5025379;28;20057;-65
2021/06/09 05:58:22;;;;;;;10.98;6.15;;;21.00;81.20;;;;;;5026034;28;20344;-66
2021/06/09 06:00:57;;;;;;;10.75;5.70;;;21.00;81.00;;;;;;5022512;28;20028;-67
2021/06/09 06:03:25;;;;;;;13.25;6.82;;;21.00;80.50;;;;;;5026112;28;20295;-64
2021/06/09 06:05:56;;;;;;;9.15;6.15;;;21.10;80.70;;;;;;5025062;28;20026;-66
2021/06/09 06:08:26;;;;;;;8.93;6.43;;;21.10;80.40;;;;;;5025493;28;20087;-66
2021/06/09 06:10:52;;;;;;;9.27;6.00;;;21.10;80.50;;;;;;5026745;28;20108;-66
2021/06/09 06:13:19;;;;;;;10.07;5.88;;;21.10;80.00;;;;;;5023556;28;20025;-64
2021/06/09 06:15:45;;;;;;;8.30;5.53;;;21.10;79.60;;;;;;5025835;28;20029;-63
2021/06/09 06:18:13;;;;;;;8.18;5.18;;;21.20;80.40;;;;;;5024772;28;20030;-67
2021/06/09 06:20:42;;;;;;;7.75;5.93;;;21.20;79.40;;;;;;5025410;28;20311;-64
2021/06/09 06:23:08;;;;;;;10.07;5.40;;;21.30;79.10;;;;;;5025956;28;20574;-69
2021/06/09 06:25:34;;;;;;;10.57;6.07;;;21.30;78.70;;;;;;5025779;28;20108;-68
2021/06/09 06:27:59;;;;;;;11.20;5.40;;;21.50;78.10;;;;;;5026831;28;20064;-64
2021/06/09 06:30:25;;;;;;;9.65;5.20;;;21.60;77.10;;;;;;5026478;28;20104;-67
2021/06/09 06:32:57;;;;;;;8.85;5.45;;;21.60;76.80;;;;;;5023942;28;20032;-66
2021/06/09 06:35:25;;;;;;;8.63;5.88;;;21.70;76.40;;;;;;5025137;28;20120;-65
2021/06/09 06:37:51;;;;;;;8.70;5.15;;;21.70;76.10;;;;;;5025545;28;20083;-64
2021/06/09 06:40:23;;;;;;;7.18;5.25;;;21.80;75.70;;;;;;5026351;28;20025;-71
2021/06/09 06:42:50;;;;;;;8.38;5.35;;;21.80;75.60;;;;;;5026044;28;20030;-63
2021/06/09 06:45:16;;;;;;;8.52;6.38;;;21.90;75.30;;;;;;5026587;28;20021;-65
2021/06/09 06:47:43;;;;;;;7.88;5.35;;;21.90;75.30;;;;;;5026100;28;20472;-65
2021/06/09 06:50:10;;;;;;;8.73;5.15;;;22.00;74.60;;;;;;5026363;28;20087;-68
2021/06/09 06:52:36;;;;;;;11.13;6.25;;;22.10;74.30;;;;;;5026140;28;20025;-64
2021/06/09 06:55:05;;;;;;;10.35;6.65;;;22.10;74.30;;;;;;5025859;28;20701;-64
2021/06/09 06:57:31;;;;;;;10.73;5.95;;;22.20;74.00;;;;;;5025708;28;20025;-66
2021/06/09 07:00:00;;;;;;;9.35;6.40;;;22.20;74.10;;;;;;5024601;28;20036;-65
2021/06/09 07:02:26;;;;;;;9.38;5.63;;;22.30;73.60;;;;;;5025840;28;20029;-68
2021/06/09 07:04:51;;;;;;;9.43;6.47;;;22.30;73.10;;;;;;5024597;28;20033;-66
2021/06/09 07:07:17;;;;;;;9.98;6.30;;;22.40;72.90;;;;;;5025657;28;20033;-66
2021/06/09 07:09:44;;;;;;;8.40;5.35;;;22.40;72.70;;;;;;5024840;28;20486;-63
2021/06/09 07:12:09;;;;;;;9.50;5.78;;;22.50;72.30;;;;;;5025651;28;20064;-64
2021/06/09 07:14:36;;;;;;;11.30;6.10;;;22.50;72.00;;;;;;5025659;28;20030;-65
2021/06/09 07:17:02;;;;;;;8.95;5.88;;;22.60;71.80;;;;;;5024302;28;20029;-64
2021/06/09 07:19:28;;;;;;;9.32;6.00;;;22.70;71.70;;;;;;5024475;28;20059;-64
2021/06/09 07:21:57;;;;;;;8.88;5.43;;;22.70;71.30;;;;;;5024499;28;20471;-64
2021/06/09 07:24:22;;;;;;;10.07;6.82;;;22.80;71.00;;;;;;5025349;28;20128;-71
2021/06/09 07:26:49;;;;;;;9.77;6.00;;;22.80;71.10;;;;;;5024408;28;20124;-66
2021/06/09 07:29:22;;;;;;;10.82;6.88;;;22.90;70.80;;;;;;5025720;28;20033;-66
2021/06/09 07:31:48;;;;;;;10.82;6.93;;;22.90;70.70;;;;;;5025525;28;20544;-64
2021/06/09 07:34:15;;;;;;;9.27;6.60;;;23.00;70.50;;;;;;5023953;28;20028;-64
2021/06/09 07:36:47;;;;;;;9.73;7.13;;;23.00;70.30;;;;;;5025295;28;20053;-64
2021/06/09 07:39:25;;;;;;;12.40;7.55;;;23.00;70.30;;;;;;5025540;28;20090;-64
2021/06/09 07:41:52;;;;;;;11.90;7.53;;;23.10;70.20;;;;;;5023993;28;20064;-64
2021/06/09 07:44:20;;;;;;;12.38;7.85;;;23.20;70.30;;;;;;5025610;28;20044;-65
2021/06/09 07:46:46;;;;;;;13.30;9.30;;;23.20;70.30;;;;;;5025958;28;20124;-65
2021/06/09 07:49:14;;;;;;;12.85;9.38;;;23.30;69.90;;;;;;5023552;28;20402;-65
2021/06/09 07:51:44;;;;;;;14.18;10.20;;;23.30;69.90;;;;;;5023954;28;20502;-67
2021/06/09 07:54:12;;;;;;;16.88;11.85;;;23.30;69.90;;;;;;5025328;28;20331;-64
2021/06/09 07:56:39;;;;;;;13.57;8.63;;;23.30;70.00;;;;;;5024341;28;20026;-66
2021/06/09 07:59:07;;;;;;;11.43;8.52;;;23.50;69.20;;;;;;5023909;28;20030;-70
2021/06/09 08:01:34;;;;;;;16.25;10.30;;;23.60;68.50;;;;;;5025504;28;20231;-70
2021/06/09 08:04:00;;;;;;;15.73;9.15;;;23.50;69.00;;;;;;5023887;28;20029;-64
2021/06/09 08:06:26;;;;;;;17.02;8.45;;;23.60;68.80;;;;;;5018779;28;20045;-66
2021/06/09 08:08:52;;;;;;;12.32;8.35;;;23.60;68.20;;;;;;5025443;28;20129;-65
2021/06/09 08:11:18;;;;;;;11.73;8.60;;;23.70;67.80;;;;;;5025651;28;20100;-65
2021/06/09 08:13:44;;;;;;;11.82;8.32;;;23.80;67.90;;;;;;5025517;28;20060;-66
2021/06/09 08:16:16;;;;;;;12.55;8.20;;;23.80;67.80;;;;;;5024398;28;20498;-65
2021/06/09 08:18:42;;;;;;;13.20;7.78;;;23.80;67.60;;;;;;5029160;28;20033;-68
2021/06/09 08:21:16;;;;;;;11.73;7.18;;;23.80;67.30;;;;;;5029790;28;20390;-68
2021/06/09 08:23:44;;;;;;;10.32;6.85;;;23.90;67.00;;;;;;5027839;28;20060;-69
2021/06/09 08:26:12;;;;;;;10.45;6.82;;;24.00;66.50;;;;;;5027858;28;20033;-68
2021/06/09 08:28:40;;;;;;;12.35;7.45;;;24.10;66.10;;;;;;5028181;28;20083;-67
2021/06/09 08:31:07;;;;;;;13.98;7.82;;;24.00;65.90;;;;;;5025136;28;20131;-73
2021/06/09 08:33:35;;;;;;;12.07;7.18;;;24.10;66.00;;;;;;5027489;28;20560;-68
2021/06/09 08:36:01;;;;;;;14.93;9.05;;;24.10;66.20;;;;;;5028814;28;20203;-67
2021/06/09 08:38:26;;;;;;;12.10;7.63;;;24.10;65.80;;;;;;5027725;28;20112;-69
2021/06/09 08:40:52;;;;;;;11.73;7.28;;;23.90;66.40;;;;;;5029157;28;20033;-67
2021/06/09 08:43:20;;;;;;;10.68;6.72;;;23.60;68.20;;;;;;5028698;28;20041;-64
2021/06/09 08:45:47;;;;;;;11.05;6.40;;;23.80;67.10;;;;;;5028897;28;20498;-65
2021/06/09 08:48:17;;;;;;;11.35;6.88;;;23.90;66.50;;;;;;5028993;28;20132;-68
2021/06/09 08:50:45;;;;;;;10.95;7.07;;;23.60;67.80;;;;;;5028861;28;20502;-69
2021/06/09 08:53:13;;;;;;;9.98;6.65;;;23.30;68.90;;;;;;5028555;28;20026;-63
2021/06/09 08:55:38;;;;;;;11.07;7.05;;;23.30;69.50;;;;;;5028592;28;20537;-64
2021/06/09 08:58:06;;;;;;;9.13;6.00;;;23.20;69.80;;;;;;5027108;28;20383;-64
2021/06/09 09:00:33;;;;;;;12.20;7.13;;;23.20;69.90;;;;;;5028986;28;20036;-64
2021/06/09 09:03:00;;;;;;;10.68;6.68;;;23.50;68.80;;;;;;5028188;28;20025;-67
2021/06/09 09:05:27;;;;;;;10.52;7.25;;;23.70;67.70;;;;;;5027284;28;20029;-64
2021/06/09 09:07:56;;;;;;;10.07;6.35;;;23.70;67.70;;;;;;5028302;28;20035;-65
2021/06/09 09:10:22;;;;;;;11.35;6.38;;;23.50;68.90;;;;;;5028310;28;20181;-66
2021/06/09 09:12:47;;;;;;;9.80;6.70;;;23.20;69.50;;;;;;5026823;28;20033;-64
2021/06/09 09:15:13;;;;;;;11.50;6.72;;;23.10;70.10;;;;;;5028312;28;20526;-64
2021/06/09 09:17:49;;;;;;;10.27;6.20;;;23.20;70.60;;;;;;5028550;28;20041;-63
2021/06/09 09:20:15;;;;;;;9.43;6.05;;;23.00;70.80;;;;;;5028407;28;20030;-66
2021/06/09 09:22:40;;;;;;;9.65;6.32;;;23.10;70.70;;;;;;5028090;28;20192;-67
2021/06/09 09:25:12;;;;;;;10.18;5.57;;;23.70;67.80;;;;;;5028314;28;20112;-70
2021/06/09 09:27:38;;;;;;;;;;;24.00;66.50;;;;;;5027656;28;20029;-64
2021/06/09 09:30:06;;;;;;;9.15;6.00;;;23.70;67.80;;;;;;5027132;28;19911;-65
2021/06/09 09:32:32;;;;;;;9.55;6.10;;;23.60;68.70;;;;;;5027568;28;20116;-64
2021/06/09 09:35:08;;;;;;;8.07;5.25;;;24.00;66.60;;;;;;5026834;28;20108;-64
2021/06/09 09:37:34;;;;;;;8.93;5.40;;;24.30;65.30;;;;;;5026155;28;20060;-66
2021/06/09 09:40:16;;;;;;;8.18;5.22;;;24.00;66.10;;;;;;5028347;28;20068;-68
2021/06/09 09:42:44;;;;;;;9.18;5.65;;;24.00;66.30;;;;;;5026299;28;20413;-65
2021/06/09 09:45:13;;;;;;;9.02;5.28;;;24.00;66.20;;;;;;5028285;28;20039;-65
2021/06/09 09:47:38;;;;;;;9.57;5.40;;;23.90;67.10;;;;;;5027567;28;20589;-66
2021/06/09 09:50:04;;;;;;;10.35;6.00;;;24.00;66.50;;;;;;5026921;28;20035;-68
2021/06/09 09:52:49;;;;;;;7.82;4.95;;;24.30;65.10;;;;;;5026266;28;20395;-65
2021/06/09 09:55:14;;;;;;;7.72;5.40;;;24.70;63.70;;;;;;5026249;28;20029;-68
2021/06/09 09:57:40;;;;;;;9.13;5.47;;;24.70;63.70;;;;;;5027671;28;20026;-67
2021/06/09 10:00:07;;;;;;;9.32;5.43;;;24.60;64.00;;;;;;5026081;28;20405;-67
2021/06/09 10:02:33;;;;;;;8.45;5.57;;;24.80;62.90;;;;;;5025725;28;20631;-67
2021/06/09 10:05:10;;;;;;;8.82;5.35;;;25.10;62.20;;;;;;5027486;28;20045;-65
2021/06/09 10:07:37;;;;;;;8.65;5.03;;;25.30;61.30;;;;;;5025746;28;20037;-64
2021/06/09 10:10:05;;;;;;;8.50;5.18;;;24.90;62.00;;;;;;5027101;28;20052;-66
2021/06/09 10:12:30;;;;;;;8.20;5.00;;;24.70;63.10;;;;;;5027056;28;20017;-64
2021/06/09 10:14:56;;;;;;;8.32;4.82;;;24.90;62.50;;;;;;5027051;28;20033;-64
2021/06/09 10:17:25;;;;;;;7.57;4.90;;;25.00;62.10;;;;;;5026885;28;20021;-64
2021/06/09 10:19:56;;;;;;;7.32;4.90;;;24.90;63.10;;;;;;5027169;28;20029;-64
2021/06/09 10:22:27;;;;;;;8.13;5.37;;;24.80;62.90;;;;;;5027441;28;20509;-65
2021/06/09 10:24:56;;;;;;;8.07;5.75;;;24.60;63.90;;;;;;5027199;28;20274;-64
2021/06/09 10:27:35;;;;;;;7.55;4.60;;;24.80;63.20;;;;;;5026632;28;20545;-67
2021/06/09 10:30:01;;;;;;;7.30;4.72;;;25.10;62.10;;;;;;5026484;28;20379;-64
2021/06/09 10:32:27;;;;;;;7.97;5.25;;;25.30;61.00;;;;;;5025273;28;20033;-67
2021/06/09 10:34:53;;;;;;;7.72;5.25;;;25.10;62.10;;;;;;5025337;28;20029;-64
2021/06/09 10:37:19;;;;;;;8.00;5.43;;;24.60;63.40;;;;;;5026669;28;20029;-65
2021/06/09 10:39:45;;;;;;;7.68;5.10;;;24.90;62.50;;;;;;5026697;28;20080;-65
2021/06/09 10:42:17;;;;;;;7.57;4.93;;;25.30;61.40;;;;;;5026952;28;20040;-68
2021/06/09 10:44:46;;;;;;;7.53;4.82;;;25.50;60.60;;;;;;5026501;28;20108;-67
2021/06/09 10:47:19;;;;;;;7.40;4.78;;;25.60;59.90;;;;;;5026363;28;20021;-67
2021/06/09 10:49:45;;;;;;;7.07;4.28;;;25.70;59.90;;;;;;5025216;28;20021;-64
2021/06/09 10:52:12;;;;;;;6.82;4.32;;;25.70;59.70;;;;;;5026279;28;20087;-64
2021/06/09 10:54:38;;;;;;;7.70;4.50;;;25.70;59.70;;;;;;5025993;28;20087;-65
2021/06/09 10:57:06;;;;;;;7.22;4.53;;;25.70;59.70;;;;;;5026511;28;20507;-66
2021/06/09 10:59:32;;;;;;;9.23;5.28;;;25.80;59.50;;;;;;5026218;28;20044;-65
2021/06/09 11:02:04;;;;;;;7.82;5.05;;;25.80;59.40;;;;;;5025103;28;20033;-69
2021/06/09 11:04:46;;;;;;;7.05;4.53;;;25.80;59.40;;;;;;5024597;28;20044;-64
2021/06/09 11:07:39;;;;;;;7.57;5.32;;;25.80;59.40;;;;;;5024368;28;20237;-66
2021/06/09 11:10:14;;;;;;;7.50;4.55;;;25.80;59.40;;;;;;5026319;28;20428;-64
2021/06/09 11:12:42;;;;;;;7.53;4.68;;;25.80;59.40;;;;;;5026386;28;20052;-64
2021/06/09 11:15:13;;;;;;;6.88;4.72;;;25.80;59.40;;;;;;5024671;28;20021;-66
2021/06/09 11:17:48;;;;;;;7.57;4.80;;;25.80;59.40;;;;;;5025695;28;20087;-67
2021/06/09 11:20:26;;;;;;;7.25;4.65;;;25.80;59.70;;;;;;5023969;28;20124;-68
2021/06/09 11:22:54;;;;;;;7.57;4.90;;;25.80;59.50;;;;;;5025046;28;20532;-64
2021/06/09 11:25:29;;;;;;;6.63;4.55;;;25.80;59.90;;;;;;5026038;28;20034;-64
2021/06/09 11:27:59;;;;;;;7.97;4.43;;;25.70;59.70;;;;;;5023926;28;20030;-66
2021/06/09 11:30:25;;;;;;;7.65;4.78;;;25.80;60.00;;;;;;5025860;28;20022;-70
2021/06/09 11:32:56;;;;;;;7.63;4.30;;;25.70;60.50;;;;;;5025501;28;20071;-66
2021/06/09 11:35:41;;;;;;;6.80;4.32;;;25.50;60.90;;;;;;5024129;28;20025;-65
2021/06/09 11:38:13;;;;;;;6.60;4.10;;;25.30;62.00;;;;;;5024233;28;20391;-66
2021/06/09 11:41:05;;;;;;;6.85;4.60;;;24.80;63.40;;;;;;5025767;28;20037;-68
2021/06/09 11:43:46;;;;;;;6.57;4.75;;;24.50;64.80;;;;;;5025391;28;20032;-66
2021/06/09 11:46:23;;;;;;;6.53;4.60;;;24.20;65.60;;;;;;5025698;28;20030;-65
2021/06/09 11:48:54;;;;;;;7.00;4.60;;;24.10;66.20;;;;;;5025712;28;20033;-66
2021/06/09 11:51:40;;;;;;;6.95;4.47;;;24.00;66.70;;;;;;5024813;28;20060;-65
2021/06/09 11:54:15;;;;;;;7.03;4.57;;;24.00;67.00;;;;;;5023931;28;20030;-64
2021/06/09 11:56:53;;;;;;;6.28;4.20;;;23.90;67.10;;;;;;5025419;28;20033;-66
2021/06/09 11:59:29;;;;;;;6.95;4.70;;;23.90;67.10;;;;;;5024234;28;20265;-69
2021/06/09 12:01:59;;;;;;;7.43;4.63;;;23.90;67.10;;;;;;5025971;28;20036;-64
2021/06/09 12:04:26;;;;;;;6.93;4.43;;;23.90;67.40;;;;;;5024734;28;20032;-67
2021/06/09 12:06:58;;;;;;;7.85;5.07;;;23.80;67.70;;;;;;5024324;28;20032;-67
2021/06/09 12:09:25;;;;;;;7.32;4.60;;;23.80;68.00;;;;;;5020645;28;20076;-66
2021/06/09 12:11:54;;;;;;;7.28;4.68;;;23.70;68.80;;;;;;5003714;28;20080;-67
2021/06/09 12:14:36;;;;;;;8.00;4.20;;;23.70;68.20;;;;;;5004013;28;20564;-65
2021/06/09 12:17:11;;;;;;;6.43;4.47;;;23.70;68.40;;;;;;5006052;28;20034;-66
2021/06/09 12:19:57;;;;;;;7.32;4.93;;;23.70;68.40;;;;;;5005741;28;20030;-66
2021/06/09 12:22:25;;;;;;;8.52;5.32;;;23.70;68.50;;;;;;5001728;28;20038;-65
2021/06/09 12:25:04;;;;;;;7.10;4.78;;;23.80;68.40;;;;;;5005647;28;20496;-65
2021/06/09 12:27:31;;;;;;;7.40;4.70;;;23.80;68.40;;;;;;5005421;28;20034;-65
2021/06/09 12:29:57;;;;;;;7.72;4.60;;;23.80;68.40;;;;;;5004247;28;20582;-64
2021/06/09 12:32:28;;;;;;;7.30;4.75;;;23.80;68.60;;;;;;5005561;28;20026;-65
2021/06/09 12:34:59;;;;;;;7.35;4.65;;;23.70;68.60;;;;;;5005838;28;20104;-65
2021/06/09 12:37:26;;;;;;;6.95;4.57;;;23.70;68.90;;;;;;5005518;28;20037;-66
2021/06/09 12:40:10;;;;;;;7.80;4.22;;;23.70;68.90;;;;;;5005762;28;20455;-65
2021/06/09 12:42:37;;;;;;;7.22;4.80;;;23.60;69.00;;;;;;5005665;28;20391;-71
2021/06/09 12:45:09;;;;;;;9.05;4.43;;;23.60;69.10;;;;;;5005268;28;20186;-68
2021/06/09 12:47:37;;;;;;;6.70;4.40;;;23.60;69.30;;;;;;5005041;28;20061;-69
2021/06/09 12:50:13;;;;;;;6.65;4.50;;;23.60;69.50;;;;;;5005659;28;20026;-67
2021/06/09 12:52:39;;;;;;;7.88;4.78;;;23.50;69.40;;;;;;5005311;28;20054;-65
2021/06/09 12:55:28;;;;;;;13.65;4.53;;;23.50;69.50;;;;;;5008456;28;20124;-69